createdAt,value
2018-09-11T00:01:58.541Z,21.48
2018-09-11T00:04:26.232Z,21.49
2018-09-11T00:06:53.900Z,21.47
2018-09-11T00:09:21.595Z,21.42
2018-09-11T00:11:49.272Z,21.39
2018-09-11T00:14:16.945Z,21.37
2018-09-11T00:16:44.622Z,21.35
2018-09-11T00:19:12.461Z,21.32
2018-09-11T00:21:40.309Z,21.33
2018-09-11T00:24:08.498Z,21.31
2018-09-11T00:26:36.675Z,21.30
2018-09-11T00:29:04.825Z,21.27
2018-09-11T00:31:32.852Z,21.24
2018-09-11T00:34:00.578Z,21.22
2018-09-11T00:36:28.559Z,21.19
2018-09-11T00:38:56.562Z,21.17
2018-09-11T00:41:24.405Z,21.13
2018-09-11T00:43:52.309Z,21.19
2018-09-11T00:46:20.278Z,21.17
2018-09-11T00:48:48.435Z,21.15
2018-09-11T00:51:16.676Z,21.12
2018-09-11T00:53:44.647Z,21.11
2018-09-11T00:56:12.446Z,21.07
2018-09-11T00:58:40.541Z,21.04
2018-09-11T01:01:08.423Z,21.05
2018-09-11T01:03:36.314Z,21.04
2018-09-11T01:06:04.317Z,21.03
2018-09-11T01:08:32.134Z,21.01
2018-09-11T01:11:00.359Z,20.99
2018-09-11T01:13:28.288Z,20.94
2018-09-11T01:15:56.179Z,20.94
2018-09-11T01:18:24.016Z,21.00
2018-09-11T01:20:51.876Z,21.02
2018-09-11T01:23:19.771Z,20.98
2018-09-11T01:25:47.719Z,20.97
2018-09-11T01:28:15.700Z,20.98
2018-09-11T01:30:43.602Z,20.91
2018-09-11T01:33:11.500Z,20.85
2018-09-11T01:35:39.300Z,20.88
2018-09-11T01:38:07.404Z,20.85
2018-09-11T01:40:35.238Z,20.83
2018-09-11T01:43:03.111Z,20.79
2018-09-11T01:45:30.844Z,20.77
2018-09-11T01:47:58.494Z,20.73
2018-09-11T01:50:26.125Z,20.73
2018-09-11T01:52:53.828Z,20.69
2018-09-11T01:55:21.467Z,20.66
2018-09-11T01:57:49.141Z,20.64
2018-09-11T02:00:17.874Z,20.60
2018-09-11T02:02:46.345Z,20.56
2018-09-11T02:05:14.239Z,20.54
2018-09-11T02:07:42.882Z,20.52
2018-09-11T02:10:11.047Z,20.51
2018-09-11T02:12:39.108Z,20.49
2018-09-11T02:15:07.645Z,20.47
2018-09-11T02:17:35.867Z,20.43
2018-09-11T02:20:03.990Z,20.39
2018-09-11T02:22:31.867Z,20.38
2018-09-11T02:24:59.690Z,20.37
2018-09-11T02:27:27.752Z,20.35
2018-09-11T02:29:55.558Z,20.32
2018-09-11T02:32:23.607Z,20.29
2018-09-11T02:34:51.467Z,20.25
2018-09-11T02:37:19.474Z,20.21
2018-09-11T02:39:47.428Z,20.19
2018-09-11T02:42:15.308Z,20.16
2018-09-11T02:44:43.441Z,20.16
2018-09-11T02:47:11.536Z,20.13
2018-09-11T02:49:39.408Z,20.10
2018-09-11T02:52:07.629Z,20.11
2018-09-11T02:54:35.453Z,20.11
2018-09-11T02:57:03.337Z,20.11
2018-09-11T02:59:31.256Z,20.08
2018-09-11T03:01:59.161Z,20.06
2018-09-11T03:04:26.937Z,20.08
2018-09-11T03:06:54.852Z,20.09
2018-09-11T03:09:22.676Z,20.07
2018-09-11T03:11:50.460Z,20.09
2018-09-11T03:14:18.353Z,20.11
2018-09-11T03:16:46.190Z,20.07
2018-09-11T03:19:14.061Z,20.06
2018-09-11T03:21:41.962Z,20.02
2018-09-11T03:24:09.816Z,20.00
2018-09-11T03:26:37.666Z,19.95
2018-09-11T03:29:05.755Z,19.90
2018-09-11T03:31:33.633Z,19.86
2018-09-11T03:34:01.477Z,19.82
2018-09-11T03:36:29.384Z,19.76
2018-09-11T03:38:57.240Z,19.74
2018-09-11T03:41:25.302Z,19.66
2018-09-11T03:43:53.197Z,19.64
2018-09-11T03:46:21.038Z,19.60
2018-09-11T03:48:49.009Z,19.57
2018-09-11T03:51:16.809Z,19.55
2018-09-11T03:53:44.827Z,19.53
2018-09-11T03:56:12.629Z,19.52
2018-09-11T03:58:40.514Z,19.49
2018-09-11T04:01:08.493Z,19.54
2018-09-11T04:03:36.624Z,19.59
2018-09-11T04:06:04.446Z,19.58
2018-09-11T04:08:32.288Z,19.56
2018-09-11T04:11:00.180Z,19.56
2018-09-11T04:13:28.066Z,19.67
2018-09-11T04:15:55.894Z,19.70
2018-09-11T04:18:23.757Z,19.65
2018-09-11T04:20:51.693Z,19.68
2018-09-11T04:23:19.614Z,19.71
2018-09-11T04:25:47.501Z,19.67
2018-09-11T04:28:15.516Z,19.58
2018-09-11T04:30:43.414Z,19.61
2018-09-11T04:33:11.220Z,19.66
2018-09-11T04:35:39.125Z,19.63
2018-09-11T04:38:07.147Z,19.66
2018-09-11T04:40:34.838Z,19.65
2018-09-11T04:43:02.695Z,19.67
2018-09-11T04:45:30.482Z,19.63
2018-09-11T04:47:58.375Z,19.61
2018-09-11T04:50:26.313Z,19.62
2018-09-11T04:52:54.112Z,19.65
2018-09-11T04:55:22.089Z,19.68
2018-09-11T04:57:49.988Z,19.70
2018-09-11T05:00:17.805Z,19.75
2018-09-11T05:02:45.675Z,19.75
2018-09-11T05:05:13.683Z,19.80
2018-09-11T05:07:41.606Z,19.78
2018-09-11T05:10:09.494Z,19.78
2018-09-11T05:12:37.821Z,19.71
2018-09-11T05:15:05.846Z,19.75
2018-09-11T05:17:33.707Z,19.76
2018-09-11T05:20:01.727Z,19.75
2018-09-11T05:22:29.578Z,19.74
2018-09-11T05:24:57.532Z,19.78
2018-09-11T05:27:25.618Z,19.81
2018-09-11T05:29:53.453Z,19.81
2018-09-11T05:32:21.345Z,19.85
2018-09-11T05:34:49.242Z,19.85
2018-09-11T05:37:17.081Z,19.86
2018-09-11T05:39:45.054Z,19.93
2018-09-11T05:42:13.262Z,19.87
2018-09-11T05:44:41.206Z,19.97
2018-09-11T05:47:09.104Z,19.97
2018-09-11T05:49:37.058Z,20.01
2018-09-11T05:52:05.306Z,20.03
2018-09-11T05:54:33.186Z,20.09
2018-09-11T05:57:00.998Z,20.14
2018-09-11T05:59:28.860Z,20.18
2018-09-11T06:01:57.024Z,20.24
2018-09-11T06:04:24.809Z,20.28
2018-09-11T06:06:52.772Z,20.31
2018-09-11T06:09:20.725Z,20.41
2018-09-11T06:11:48.644Z,20.49
2018-09-11T06:14:16.785Z,20.50
2018-09-11T06:16:44.649Z,20.43
2018-09-11T06:19:12.450Z,20.38
2018-09-11T06:21:40.300Z,20.41
2018-09-11T06:24:08.176Z,20.29
2018-09-11T06:26:36.197Z,20.29
2018-09-11T06:29:04.229Z,20.32
2018-09-11T06:31:32.273Z,20.34
2018-09-11T06:34:00.195Z,20.34
2018-09-11T06:36:28.106Z,20.37
2018-09-11T06:38:56.095Z,20.37
2018-09-11T06:41:23.987Z,20.35
2018-09-11T06:43:51.909Z,20.28
2018-09-11T06:46:19.815Z,20.25
2018-09-11T06:48:47.699Z,20.07
2018-09-11T06:51:15.556Z,19.96
2018-09-11T06:53:43.410Z,19.98
2018-09-11T06:56:11.284Z,19.91
2018-09-11T06:58:39.164Z,19.89
2018-09-11T07:01:07.039Z,19.95
2018-09-11T07:03:35.062Z,20.61
2018-09-11T07:06:02.866Z,21.08
2018-09-11T07:08:30.845Z,21.77
2018-09-11T07:10:58.888Z,22.26
2018-09-11T07:13:26.873Z,22.53
2018-09-11T07:15:54.954Z,22.72
2018-09-11T07:18:23.141Z,22.75
2018-09-11T07:20:51.126Z,23.32
2018-09-11T07:23:18.996Z,23.68
2018-09-11T07:25:47.058Z,23.90
2018-09-11T07:28:14.924Z,24.02
2018-09-11T07:30:42.837Z,24.12
2018-09-11T07:33:10.770Z,24.24
2018-09-11T07:35:38.840Z,24.39
2018-09-11T07:38:06.695Z,24.86
2018-09-11T07:40:34.762Z,24.99
2018-09-11T07:43:02.638Z,25.05
2018-09-11T07:45:30.519Z,25.00
2018-09-11T07:47:58.334Z,25.20
2018-09-11T07:50:26.259Z,25.40
2018-09-11T07:52:54.319Z,26.07
2018-09-11T07:55:22.285Z,26.16
2018-09-11T07:57:50.191Z,26.88
2018-09-11T08:00:17.968Z,26.85
2018-09-11T08:02:46.243Z,27.30
2018-09-11T08:05:14.183Z,28.11
2018-09-11T08:07:41.995Z,27.81
2018-09-11T08:10:09.947Z,28.07
2018-09-11T08:12:37.987Z,27.89
2018-09-11T08:15:06.628Z,27.77
2018-09-11T08:17:34.660Z,28.01
2018-09-11T08:20:02.922Z,28.17
2018-09-11T08:22:30.840Z,28.03
2018-09-11T08:24:58.741Z,27.46
2018-09-11T08:27:26.675Z,27.07
2018-09-11T08:29:54.855Z,26.71
2018-09-11T08:32:22.749Z,26.62
2018-09-11T08:34:50.610Z,26.55
2018-09-11T08:37:18.579Z,26.97
2018-09-11T08:39:46.600Z,28.12
2018-09-11T08:42:14.509Z,27.96
2018-09-11T08:44:42.385Z,27.98
2018-09-11T08:47:10.413Z,27.90
2018-09-11T08:49:38.529Z,28.38
2018-09-11T08:52:07.146Z,28.85
2018-09-11T08:54:35.680Z,28.97
2018-09-11T08:57:03.787Z,29.08
2018-09-11T08:59:31.648Z,28.82
2018-09-11T09:01:59.552Z,27.79
2018-09-11T09:04:27.564Z,27.29
2018-09-11T09:06:55.523Z,26.80
2018-09-11T09:09:23.577Z,26.48
2018-09-11T09:11:51.719Z,26.85
2018-09-11T09:14:19.644Z,26.64
2018-09-11T09:16:48.091Z,26.93
2018-09-11T09:19:16.142Z,27.87
2018-09-11T09:21:44.084Z,28.83
2018-09-11T09:24:12.010Z,30.17
2018-09-11T09:26:40.068Z,30.05
2018-09-11T09:29:08.127Z,29.74
2018-09-11T09:31:36.138Z,29.80
2018-09-11T09:34:04.149Z,30.33
2018-09-11T09:36:32.036Z,31.01
2018-09-11T09:39:00.295Z,31.19
2018-09-11T09:41:28.105Z,30.46
2018-09-11T09:43:56.337Z,30.39
2018-09-11T09:46:24.307Z,30.35
2018-09-11T09:48:52.218Z,31.10
2018-09-11T09:51:20.356Z,31.79
2018-09-11T09:53:48.232Z,31.75
2018-09-11T09:56:16.025Z,31.03
2018-09-11T09:58:43.894Z,30.47
2018-09-11T10:01:17.281Z,30.49
2018-09-11T10:03:45.068Z,30.74
2018-09-11T10:06:12.934Z,30.93
2018-09-11T10:08:40.947Z,31.08
2018-09-11T10:11:08.848Z,31.77
2018-09-11T10:13:36.755Z,31.57
2018-09-11T10:16:04.692Z,31.25
2018-09-11T10:18:33.082Z,31.16
2018-09-11T10:21:00.941Z,31.01
2018-09-11T10:23:28.976Z,30.99
2018-09-11T10:25:56.909Z,31.75
2018-09-11T10:28:24.807Z,31.79
2018-09-11T10:30:52.784Z,31.28
2018-09-11T10:33:20.616Z,31.21
2018-09-11T10:35:48.694Z,31.11
2018-09-11T10:38:16.596Z,31.21
2018-09-11T10:40:54.254Z,31.03
2018-09-11T10:43:22.438Z,30.48
2018-09-11T10:45:50.338Z,31.17
2018-09-11T10:48:18.522Z,31.60
2018-09-11T10:50:46.421Z,31.44
2018-09-11T10:53:14.331Z,31.05
2018-09-11T10:55:42.217Z,30.93
2018-09-11T10:58:09.978Z,31.34
2018-09-11T11:00:37.651Z,31.89
2018-09-11T11:03:05.561Z,31.70
2018-09-11T11:05:33.266Z,31.26
2018-09-11T11:08:00.949Z,30.91
2018-09-11T11:10:29.107Z,30.51
2018-09-11T11:12:56.825Z,30.25
2018-09-11T11:15:24.874Z,30.39
2018-09-11T11:17:52.770Z,30.05
2018-09-11T11:20:21.010Z,30.35
2018-09-11T11:22:48.940Z,30.83
2018-09-11T11:25:16.925Z,30.70
2018-09-11T11:27:44.803Z,30.31
2018-09-11T11:30:12.639Z,30.34
2018-09-11T11:32:40.633Z,30.66
2018-09-11T11:35:08.589Z,30.58
2018-09-11T11:37:36.727Z,30.42
2018-09-11T11:40:04.976Z,30.14
2018-09-11T11:42:32.862Z,30.13
2018-09-11T11:45:00.782Z,30.12
2018-09-11T11:47:28.553Z,30.59
2018-09-11T11:49:56.503Z,30.93
2018-09-11T11:52:24.406Z,30.79
2018-09-11T11:54:52.477Z,30.98
2018-09-11T11:57:20.279Z,31.30
2018-09-11T11:59:48.224Z,31.39
2018-09-11T12:02:16.195Z,30.87
2018-09-11T12:04:44.143Z,31.99
2018-09-11T12:07:11.837Z,32.64
2018-09-11T12:09:39.517Z,33.31
2018-09-11T12:12:07.252Z,32.32
2018-09-11T12:14:34.893Z,31.97
2018-09-11T12:17:02.560Z,33.25
2018-09-11T12:19:30.322Z,33.03
2018-09-11T12:21:57.983Z,32.72
2018-09-11T12:24:25.658Z,32.25
2018-09-11T12:26:53.868Z,31.30
2018-09-11T12:29:21.562Z,30.65
2018-09-11T12:31:49.253Z,30.51
2018-09-11T12:34:16.980Z,31.00
2018-09-11T12:36:44.640Z,30.87
2018-09-11T12:39:12.318Z,30.84
2018-09-11T12:41:40.257Z,30.46
2018-09-11T12:44:08.057Z,29.68
2018-09-11T12:46:36.177Z,29.58
2018-09-11T12:49:04.148Z,30.11
2018-09-11T12:51:32.178Z,30.71
2018-09-11T12:54:00.167Z,30.49
2018-09-11T12:56:28.163Z,30.81
2018-09-11T12:58:55.999Z,31.22
2018-09-11T13:01:23.967Z,31.15
2018-09-11T13:03:52.062Z,30.71
2018-09-11T13:06:19.940Z,30.70
2018-09-11T13:08:47.798Z,31.25
2018-09-11T13:11:15.697Z,31.12
2018-09-11T13:13:43.953Z,30.79
2018-09-11T13:16:12.515Z,30.40
2018-09-11T13:18:40.435Z,30.02
2018-09-11T13:21:08.485Z,30.20
2018-09-11T13:23:36.162Z,30.26
2018-09-11T13:26:03.976Z,30.24
2018-09-11T13:28:31.653Z,30.34
2018-09-11T13:30:59.330Z,31.00
2018-09-11T13:33:27.197Z,32.03
2018-09-11T13:35:55.007Z,33.03
2018-09-11T13:38:22.933Z,33.40
2018-09-11T13:40:51.016Z,33.42
2018-09-11T13:43:18.987Z,33.59
2018-09-11T13:45:46.801Z,33.53
2018-09-11T13:48:15.041Z,34.10
2018-09-11T13:50:42.782Z,33.92
2018-09-11T13:53:10.438Z,33.02
2018-09-11T13:55:38.253Z,32.77
2018-09-11T13:58:05.925Z,32.85
2018-09-11T14:00:33.570Z,33.14
2018-09-11T14:03:01.311Z,33.43
2018-09-11T14:05:29.350Z,33.58
2018-09-11T14:07:57.526Z,33.61
2018-09-11T14:10:25.553Z,33.14
2018-09-11T14:12:53.546Z,33.55
2018-09-11T14:15:21.353Z,34.72
2018-09-11T14:17:49.072Z,34.77
2018-09-11T14:20:16.743Z,34.81
2018-09-11T14:22:44.442Z,34.66
2018-09-11T14:25:12.161Z,34.27
2018-09-11T14:27:39.834Z,33.62
2018-09-11T14:30:07.545Z,33.83
2018-09-11T14:32:35.271Z,33.57
2018-09-11T14:35:02.955Z,34.14
2018-09-11T14:37:30.637Z,34.80
2018-09-11T14:39:58.313Z,35.86
2018-09-11T14:42:25.983Z,37.03
2018-09-11T14:44:53.668Z,37.09
2018-09-11T14:47:21.380Z,36.58
2018-09-11T14:49:49.118Z,35.53
2018-09-11T14:52:16.788Z,36.10
2018-09-11T14:54:44.475Z,37.18
2018-09-11T14:57:12.222Z,37.12
2018-09-11T14:59:39.852Z,37.15
2018-09-11T15:02:07.552Z,36.98
2018-09-11T15:04:35.212Z,36.70
2018-09-11T15:07:02.924Z,36.67
2018-09-11T15:09:30.636Z,36.25
2018-09-11T15:11:58.305Z,36.06
2018-09-11T15:14:25.992Z,36.12
2018-09-11T15:16:53.689Z,35.66
2018-09-11T15:19:21.398Z,36.07
2018-09-11T15:21:49.064Z,37.14
2018-09-11T15:24:16.781Z,37.86
2018-09-11T15:26:44.430Z,36.99
2018-09-11T15:29:12.090Z,35.68
2018-09-11T15:31:39.813Z,34.62
2018-09-11T15:34:07.485Z,34.31
2018-09-11T15:36:35.186Z,33.85
2018-09-11T15:39:03.116Z,33.60
2018-09-11T15:41:30.808Z,34.16
2018-09-11T15:43:58.498Z,34.19
2018-09-11T15:46:26.165Z,33.76
2018-09-11T15:48:53.831Z,33.37
2018-09-11T15:51:21.504Z,32.32
2018-09-11T15:53:49.195Z,32.49
2018-09-11T15:56:16.859Z,32.13
2018-09-11T15:58:44.580Z,32.10
2018-09-11T16:01:12.616Z,31.14
2018-09-11T16:03:40.393Z,30.73
2018-09-11T16:06:08.178Z,30.49
2018-09-11T16:08:36.179Z,29.88
2018-09-11T16:11:04.126Z,29.47
2018-09-11T16:13:31.987Z,29.27
2018-09-11T16:15:59.995Z,28.78
2018-09-11T16:18:27.818Z,28.72
2018-09-11T16:20:55.615Z,28.58
2018-09-11T16:23:23.843Z,28.38
2018-09-11T16:25:51.882Z,28.24
2018-09-11T16:28:19.751Z,28.08
2018-09-11T16:30:47.898Z,28.05
2018-09-11T16:33:15.965Z,27.88
2018-09-11T16:35:43.868Z,27.56
2018-09-11T16:38:12.041Z,27.37
2018-09-11T16:40:40.010Z,27.25
2018-09-11T16:43:07.819Z,27.14
2018-09-11T16:45:35.872Z,27.13
2018-09-11T16:48:03.763Z,27.12
2018-09-11T16:50:31.840Z,27.04
2018-09-11T16:52:59.653Z,27.02
2018-09-11T16:55:27.557Z,27.03
2018-09-11T16:57:55.477Z,26.94
2018-09-11T17:00:23.585Z,26.85
2018-09-11T17:02:51.600Z,26.78
2018-09-11T17:05:19.468Z,26.73
2018-09-11T17:07:47.379Z,26.62
2018-09-11T17:10:15.202Z,26.57
2018-09-11T17:12:43.493Z,26.49
2018-09-11T17:15:11.409Z,26.38
2018-09-11T17:17:39.433Z,26.30
2018-09-11T17:20:07.320Z,26.26
2018-09-11T17:22:35.205Z,26.29
2018-09-11T17:25:03.565Z,26.29
2018-09-11T17:27:31.522Z,26.35
2018-09-11T17:29:59.446Z,26.40
2018-09-11T17:32:27.533Z,26.23
2018-09-11T17:34:55.377Z,26.16
2018-09-11T17:37:23.283Z,26.06
2018-09-11T17:39:51.214Z,26.00
2018-09-11T17:42:19.168Z,25.94
2018-09-11T17:44:47.066Z,25.95
2018-09-11T17:47:14.901Z,25.91
2018-09-11T17:49:42.877Z,25.94
2018-09-11T17:52:11.090Z,26.00
2018-09-11T17:54:39.445Z,26.03
2018-09-11T17:57:07.416Z,26.04
2018-09-11T17:59:35.390Z,25.95
2018-09-11T18:02:03.575Z,25.83
2018-09-11T18:04:31.513Z,25.70
2018-09-11T18:06:59.452Z,25.63
2018-09-11T18:09:27.651Z,25.57
2018-09-11T18:11:55.582Z,25.47
2018-09-11T18:14:23.575Z,25.35
2018-09-11T18:16:51.643Z,25.14
2018-09-11T18:19:19.853Z,25.05
2018-09-11T18:21:47.783Z,24.92
2018-09-11T18:24:15.929Z,24.84
2018-09-11T18:26:43.793Z,24.81
2018-09-11T18:29:11.715Z,24.82
2018-09-11T18:31:40.486Z,24.87
2018-09-11T18:34:08.637Z,24.90
2018-09-11T18:36:36.572Z,24.95
2018-09-11T18:39:06.319Z,24.92
2018-09-11T18:41:35.113Z,24.92
2018-09-11T18:44:03.330Z,24.90
2018-09-11T18:46:31.749Z,24.88
2018-09-11T18:48:59.760Z,24.87
2018-09-11T18:51:27.835Z,24.76
2018-09-11T18:53:55.817Z,24.59
2018-09-11T18:56:23.663Z,24.44
2018-09-11T18:58:51.479Z,24.35
2018-09-11T19:01:19.317Z,24.16
2018-09-11T19:03:47.178Z,24.21
2018-09-11T19:06:15.539Z,24.11
2018-09-11T19:08:43.450Z,24.07
2018-09-11T19:11:11.464Z,24.09
2018-09-11T19:13:39.661Z,24.15
2018-09-11T19:16:07.564Z,24.09
2018-09-11T19:18:36.837Z,24.08
2018-09-11T19:21:04.780Z,24.07
2018-09-11T19:23:33.220Z,24.09
2018-09-11T19:26:01.678Z,24.09
2018-09-11T19:28:29.499Z,24.08
2018-09-11T19:30:57.371Z,24.03
2018-09-11T19:33:25.243Z,23.94
2018-09-11T19:35:53.237Z,23.91
2018-09-11T19:38:21.135Z,23.83
2018-09-11T19:40:49.210Z,23.83
2018-09-11T19:43:17.284Z,23.87
2018-09-11T19:45:45.400Z,23.88
2018-09-11T19:48:13.579Z,23.83
2018-09-11T19:50:41.658Z,23.71
2018-09-11T19:53:09.533Z,23.64
2018-09-11T19:55:37.557Z,23.58
2018-09-11T19:58:05.457Z,23.53
2018-09-11T20:00:33.338Z,23.43
2018-09-11T20:03:01.202Z,23.41
2018-09-11T20:05:29.227Z,23.39
2018-09-11T20:07:57.362Z,23.32
2018-09-11T20:10:25.231Z,23.20
2018-09-11T20:12:53.235Z,23.11
2018-09-11T20:15:21.187Z,23.08
2018-09-11T20:17:49.054Z,23.05
2018-09-11T20:20:17.072Z,23.08
2018-09-11T20:22:44.916Z,23.05
2018-09-11T20:25:12.855Z,23.01
2018-09-11T20:27:41.050Z,23.01
2018-09-11T20:30:09.872Z,23.01
2018-09-11T20:32:37.920Z,23.04
2018-09-11T20:35:05.982Z,23.01
2018-09-11T20:37:33.932Z,22.88
2018-09-11T20:40:01.730Z,22.83
2018-09-11T20:42:29.746Z,22.81
2018-09-11T20:44:57.930Z,22.78
2018-09-11T20:47:25.885Z,22.76
2018-09-11T20:49:53.763Z,22.72
2018-09-11T20:52:21.706Z,22.68
2018-09-11T20:54:49.672Z,22.71
2018-09-11T20:57:17.569Z,22.75
2018-09-11T20:59:45.629Z,22.70
2018-09-11T21:02:13.495Z,22.63
2018-09-11T21:04:41.548Z,22.59
2018-09-11T21:07:09.540Z,22.62
2018-09-11T21:09:37.476Z,22.58
2018-09-11T21:12:05.310Z,22.57
2018-09-11T21:14:33.154Z,22.51
2018-09-11T21:17:01.129Z,22.56
2018-09-11T21:19:29.313Z,22.53
2018-09-11T21:21:57.210Z,22.48
2018-09-11T21:24:25.152Z,22.49
2018-09-11T21:26:52.986Z,22.40
2018-09-11T21:29:20.909Z,22.38
2018-09-11T21:31:50.431Z,22.39
2018-09-11T21:34:18.429Z,22.44
2018-09-11T21:36:46.321Z,22.40
2018-09-11T21:39:14.219Z,22.40
2018-09-11T21:41:42.351Z,22.40
2018-09-11T21:44:10.647Z,22.38
2018-09-11T21:46:38.541Z,22.38
2018-09-11T21:49:06.351Z,22.33
2018-09-11T21:51:34.194Z,22.29
2018-09-11T21:54:02.188Z,22.33
2018-09-11T21:56:30.169Z,22.38
2018-09-11T21:58:58.113Z,22.51
2018-09-11T22:01:31.621Z,22.55
2018-09-11T22:03:59.799Z,22.56
2018-09-11T22:06:27.751Z,22.58
2018-09-11T22:08:55.619Z,22.58
2018-09-11T22:11:23.510Z,22.59
2018-09-11T22:13:51.557Z,22.58
2018-09-11T22:16:19.809Z,22.62
2018-09-11T22:18:48.220Z,22.65
2018-09-11T22:21:16.232Z,22.58
2018-09-11T22:23:44.156Z,22.49
2018-09-11T22:26:12.147Z,22.34
2018-09-11T22:28:40.343Z,22.33
2018-09-11T22:31:08.264Z,22.34
2018-09-11T22:33:36.506Z,22.31
2018-09-11T22:36:04.856Z,22.32
2018-09-11T22:38:32.916Z,22.24
2018-09-11T22:41:00.845Z,22.17
2018-09-11T22:43:28.701Z,22.14
2018-09-11T22:45:56.744Z,22.13
2018-09-11T22:48:24.857Z,22.03
2018-09-11T22:50:52.660Z,22.03
2018-09-11T22:53:20.545Z,22.04
2018-09-11T22:55:48.663Z,22.01
2018-09-11T22:58:16.477Z,22.01
2018-09-11T23:00:44.565Z,22.05
2018-09-11T23:03:12.522Z,22.06
2018-09-11T23:05:40.653Z,22.04
2018-09-11T23:08:08.627Z,21.98
2018-09-11T23:10:37.048Z,21.96
2018-09-11T23:13:04.998Z,21.96
2018-09-11T23:15:33.226Z,21.97
2018-09-11T23:18:01.043Z,21.93
2018-09-11T23:20:29.029Z,21.93
2018-09-11T23:22:56.917Z,21.99
2018-09-11T23:25:24.966Z,22.01
2018-09-11T23:27:52.850Z,22.10
2018-09-11T23:30:20.735Z,22.11
2018-09-11T23:32:48.583Z,22.15
2018-09-11T23:35:16.725Z,22.14
2018-09-11T23:37:44.585Z,22.18
2018-09-11T23:40:12.432Z,22.18
2018-09-11T23:42:40.277Z,22.23
2018-09-11T23:45:08.436Z,22.20
2018-09-11T23:47:36.442Z,22.19
2018-09-11T23:50:04.482Z,22.20
2018-09-11T23:52:32.378Z,22.19
2018-09-11T23:55:00.498Z,22.17
2018-09-11T23:57:28.281Z,22.24
2018-09-11T23:59:56.407Z,22.20
